Time;durP1;ratioP1;P1;durP2;ratioP2;P2;SDS_P1;SDS_P2;PMS_P1;PMS_P2;Temp;Humidity;BMP_temperature;BMP_pressure;BME280_temperature;BME280_humidity;BME280_pressure;Samples;Min_cycle;Max_cycle;Signal;HPM_P1;HPM_P2
2022/08/30 00:03:05;;;;;;;88.00;29.25;;;;;;;;;;4973093;28;20058;-64
2022/08/30 00:05:31;;;;;;;24.13;10.15;;;;;;;;;;4972908;28;20071;-64
2022/08/30 00:07:56;;;;;;;7.75;4.55;;;;;;;;;;4973117;28;20034;-63
2022/08/30 00:10:22;;;;;;;7.00;4.00;;;;;;;;;;4972801;28;20026;-65
2022/08/30 00:12:48;;;;;;;4.32;3.28;;;;;;;;;;4973116;28;20385;-64
2022/08/30 00:15:13;;;;;;;4.45;3.03;;;;;;;;;;4972673;28;20022;-64
2022/08/30 00:17:39;;;;;;;3.15;2.85;;;;;;;;;;4972949;28;20039;-63
2022/08/30 00:20:06;;;;;;;3.22;2.72;;;;;;;;;;4973016;28;20049;-64
2022/08/30 00:22:31;;;;;;;4.32;2.80;;;;;;;;;;4955393;28;20080;-65
2022/08/30 00:24:59;;;;;;;4.03;2.72;;;;;;;;;;4972590;28;20026;-65
2022/08/30 00:27:27;;;;;;;3.70;3.22;;;;;;;;;;4972661;28;20058;-62
2022/08/30 00:29:53;;;;;;;5.35;3.25;;;;;;;;;;4955299;28;20033;-64
2022/08/30 00:32:20;;;;;;;5.55;2.70;;;;;;;;;;4972660;28;20389;-64
2022/08/30 00:34:46;;;;;;;3.88;2.70;;;;;;;;;;4972677;28;20144;-64
2022/08/30 00:37:12;;;;;;;2.70;2.50;;;;;;;;;;4972795;28;20027;-63
2022/08/30 00:39:37;;;;;;;5.00;2.95;;;;;;;;;;4972407;28;20439;-65
2022/08/30 00:42:02;;;;;;;3.13;2.85;;;;;;;;;;4972166;28;20363;-64
2022/08/30 00:44:28;;;;;;;3.60;3.30;;;;;;;;;;4972677;28;20046;-65
2022/08/30 00:46:54;;;;;;;5.22;3.33;;;;;;;;;;4972671;28;20374;-65
2022/08/30 00:49:19;;;;;;;5.68;3.65;;;;;;;;;;4972800;28;20054;-64
2022/08/30 00:51:45;;;;;;;4.45;3.13;;;;;;;;;;4972191;28;20057;-64
2022/08/30 00:54:11;;;;;;;3.67;3.08;;;;;;;;;;4954914;28;20037;-64
2022/08/30 00:56:36;;;;;;;6.65;3.08;;;;;;;;;;4972794;28;20023;-64
2022/08/30 00:59:04;;;;;;;4.13;3.72;;;;;;;;;;4972160;28;20409;-63
2022/08/30 01:01:31;;;;;;;4.65;2.83;;;;;;;;;;4971645;28;20031;-64
2022/08/30 01:03:57;;;;;;;3.92;3.03;;;;;;;;;;4972752;28;20442;-64
2022/08/30 01:06:24;;;;;;;5.32;2.88;;;;;;;;;;4954842;28;20578;-65
2022/08/30 01:08:50;;;;;;;4.75;2.67;;;;;;;;;;4972556;28;20022;-64
2022/08/30 01:11:18;;;;;;;5.00;2.85;;;;;;;;;;4972570;28;20046;-64
2022/08/30 01:13:46;;;;;;;4.88;3.53;;;;;;;;;;4972133;28;20023;-64
2022/08/30 01:16:11;;;;;;;6.28;3.10;;;;;;;;;;4971876;28;20035;-64
2022/08/30 01:18:38;;;;;;;4.03;2.83;;;;;;;;;;4972258;28;20094;-64
2022/08/30 01:21:06;;;;;;;5.90;3.17;;;;;;;;;;4971933;28;20031;-65
2022/08/30 01:23:33;;;;;;;6.35;3.30;;;;;;;;;;4954764;28;20106;-64
2022/08/30 01:25:59;;;;;;;4.55;3.55;;;;;;;;;;4971897;28;20027;-64
2022/08/30 01:28:26;;;;;;;7.78;2.80;;;;;;;;;;4972007;28;20023;-64
2022/08/30 01:30:51;;;;;;;4.03;3.10;;;;;;;;;;4971896;28;20038;-63
2022/08/30 01:33:18;;;;;;;4.70;2.97;;;;;;;;;;4971735;28;20031;-62
2022/08/30 01:35:48;;;;;;;4.10;3.65;;;;;;;;;;4972255;28;20466;-63
2022/08/30 01:38:14;;;;;;;6.13;4.18;;;;;;;;;;4971639;28;20457;-64
2022/08/30 01:40:40;;;;;;;6.15;3.55;;;;;;;;;;4954406;28;20122;-64
2022/08/30 01:43:05;;;;;;;8.30;4.15;;;;;;;;;;4971473;28;20196;-64
2022/08/30 01:45:31;;;;;;;6.68;3.38;;;;;;;;;;4972185;28;20053;-64
2022/08/30 01:47:56;;;;;;;6.00;3.13;;;;;;;;;;4971813;28;20027;-63
2022/08/30 01:50:22;;;;;;;5.95;3.20;;;;;;;;;;4954244;28;20454;-64
2022/08/30 01:52:47;;;;;;;6.78;3.08;;;;;;;;;;4971543;28;20059;-64
2022/08/30 01:55:12;;;;;;;5.60;3.65;;;;;;;;;;4971637;28;20089;-62
2022/08/30 01:57:38;;;;;;;4.68;3.05;;;;;;;;;;4971711;28;20097;-64
2022/08/30 02:00:05;;;;;;;5.53;3.63;;;;;;;;;;4971498;28;20031;-65
2022/08/30 02:02:37;;;;;;;4.53;3.20;;;;;;;;;;4972071;28;20370;-64
2022/08/30 02:05:02;;;;;;;5.85;3.33;;;;;;;;;;4971342;28;20027;-63
2022/08/30 02:07:27;;;;;;;4.18;3.38;;;;;;;;;;4971652;28;20023;-63
2022/08/30 02:09:53;;;;;;;3.50;3.13;;;;;;;;;;4953976;28;20035;-64
2022/08/30 02:12:19;;;;;;;5.88;3.53;;;;;;;;;;4971296;28;20107;-65
2022/08/30 02:14:44;;;;;;;6.53;3.47;;;;;;;;;;4973270;28;20118;-64
2022/08/30 02:17:10;;;;;;;8.45;3.58;;;;;;;;;;4974652;28;20091;-64
2022/08/30 02:19:36;;;;;;;7.22;3.80;;;;;;;;;;4974611;28;20042;-64
2022/08/30 02:22:01;;;;;;;5.82;3.90;;;;;;;;;;4974782;28;20023;-64
2022/08/30 02:24:27;;;;;;;7.10;3.38;;;;;;;;;;4957298;28;20406;-64
2022/08/30 02:26:53;;;;;;;7.60;3.33;;;;;;;;;;4974932;28;20097;-64
2022/08/30 02:29:19;;;;;;;5.72;3.08;;;;;;;;;;4957166;28;20027;-64
2022/08/30 02:31:47;;;;;;;4.28;2.85;;;;;;;;;;4974257;28;20030;-63
2022/08/30 02:34:12;;;;;;;6.60;3.45;;;;;;;;;;4974295;28;20493;-64
2022/08/30 02:36:39;;;;;;;5.28;3.47;;;;;;;;;;4974334;28;20019;-64
2022/08/30 02:39:05;;;;;;;6.15;3.25;;;;;;;;;;4974431;28;20037;-64
2022/08/30 02:41:30;;;;;;;4.22;2.88;;;;;;;;;;4973996;28;20015;-64
2022/08/30 02:43:58;;;;;;;3.17;2.78;;;;;;;;;;4974182;28;20076;-65
2022/08/30 02:46:23;;;;;;;3.05;2.70;;;;;;;;;;4974624;28;20462;-64
2022/08/30 02:48:48;;;;;;;5.50;3.00;;;;;;;;;;4956742;28;20042;-64
2022/08/30 02:51:14;;;;;;;3.75;3.00;;;;;;;;;;4974004;28;20363;-65
2022/08/30 02:53:40;;;;;;;3.67;2.67;;;;;;;;;;4974494;28;20035;-65
2022/08/30 02:56:06;;;;;;;4.35;2.97;;;;;;;;;;4973869;28;20023;-65
2022/08/30 02:58:32;;;;;;;3.08;2.88;;;;;;;;;;4974504;28;20080;-64
2022/08/30 03:00:57;;;;;;;4.05;2.88;;;;;;;;;;4956644;28;20027;-64
2022/08/30 03:03:23;;;;;;;5.53;3.00;;;;;;;;;;4974252;28;20027;-64
2022/08/30 03:05:48;;;;;;;8.52;3.38;;;;;;;;;;4974022;28;20019;-64
2022/08/30 03:08:14;;;;;;;5.40;3.00;;;;;;;;;;4974174;28;20067;-64
2022/08/30 03:10:39;;;;;;;3.63;2.53;;;;;;;;;;4973698;28;20119;-65
2022/08/30 03:13:06;;;;;;;3.25;2.35;;;;;;;;;;4973937;28;20037;-63
2022/08/30 03:15:32;;;;;;;3.45;2.70;;;;;;;;;;4956619;28;20489;-65
2022/08/30 03:17:58;;;;;;;3.72;2.70;;;;;;;;;;4973889;28;20126;-65
2022/08/30 03:20:23;;;;;;;6.05;3.03;;;;;;;;;;4973573;28;20101;-64
2022/08/30 03:22:49;;;;;;;2.72;2.53;;;;;;;;;;4973578;28;20390;-64
2022/08/30 03:25:15;;;;;;;2.72;2.47;;;;;;;;;;4973464;28;20023;-64
2022/08/30 03:27:40;;;;;;;5.43;2.55;;;;;;;;;;4973599;28;20043;-64
2022/08/30 03:30:07;;;;;;;3.58;2.80;;;;;;;;;;4973997;28;20030;-64
2022/08/30 03:32:33;;;;;;;3.92;2.70;;;;;;;;;;4956385;28;20035;-63
2022/08/30 03:34:58;;;;;;;2.53;2.33;;;;;;;;;;4973749;28;20493;-65
2022/08/30 03:37:24;;;;;;;2.85;2.00;;;;;;;;;;4973334;28;20031;-64
2022/08/30 03:39:50;;;;;;;2.35;2.15;;;;;;;;;;4973737;28;20030;-64
2022/08/30 03:42:15;;;;;;;2.88;2.05;;;;;;;;;;4973198;28;20035;-64
2022/08/30 03:44:41;;;;;;;5.22;2.80;;;;;;;;;;4973244;28;20038;-64
2022/08/30 03:47:07;;;;;;;3.08;2.30;;;;;;;;;;4973258;28;20113;-64
2022/08/30 03:49:32;;;;;;;4.07;2.70;;;;;;;;;;4955853;28;20056;-65
2022/08/30 03:51:58;;;;;;;3.13;2.33;;;;;;;;;;4973438;28;20564;-65
2022/08/30 03:54:23;;;;;;;3.47;2.63;;;;;;;;;;4973017;28;20155;-64
2022/08/30 03:56:49;;;;;;;4.47;2.72;;;;;;;;;;4973262;28;20152;-64
2022/08/30 03:59:14;;;;;;;3.03;2.22;;;;;;;;;;4973018;28;20111;-64
2022/08/30 04:01:40;;;;;;;3.35;2.53;;;;;;;;;;4973206;28;20074;-65
2022/08/30 04:04:06;;;;;;;4.93;2.67;;;;;;;;;;4972920;28;20015;-66
2022/08/30 04:06:32;;;;;;;3.05;2.40;;;;;;;;;;4956257;28;20459;-65
2022/08/30 04:08:57;;;;;;;3.47;2.55;;;;;;;;;;4939683;28;20019;-65
2022/08/30 04:11:23;;;;;;;5.05;2.47;;;;;;;;;;4972867;28;20023;-64
2022/08/30 04:13:50;;;;;;;4.22;2.70;;;;;;;;;;4955704;28;20023;-66
2022/08/30 04:16:17;;;;;;;3.13;2.13;;;;;;;;;;4955294;28;20375;-66
2022/08/30 04:18:43;;;;;;;4.95;2.38;;;;;;;;;;4972780;28;20425;-66
2022/08/30 04:21:09;;;;;;;4.10;2.63;;;;;;;;;;4973117;28;20031;-66
2022/08/30 04:23:34;;;;;;;5.40;2.72;;;;;;;;;;4972639;28;20018;-65
2022/08/30 04:25:59;;;;;;;2.50;2.30;;;;;;;;;;4955313;28;20443;-65
2022/08/30 04:28:26;;;;;;;4.63;2.72;;;;;;;;;;4955364;28;20494;-65
2022/08/30 04:30:52;;;;;;;5.07;3.03;;;;;;;;;;4955276;28;20398;-65
2022/08/30 04:33:18;;;;;;;5.00;2.90;;;;;;;;;;4972507;28;20026;-65
2022/08/30 04:35:44;;;;;;;3.88;3.28;;;;;;;;;;4972498;28;20156;-65
2022/08/30 04:38:10;;;;;;;16.92;8.48;;;;;;;;;;4971975;28;20023;-65
2022/08/30 04:40:35;;;;;;;17.75;8.40;;;;;;;;;;4972670;28;20023;-65
2022/08/30 04:43:01;;;;;;;12.35;6.20;;;;;;;;;;4971132;28;20062;-65
2022/08/30 04:45:26;;;;;;;9.50;5.68;;;;;;;;;;4971433;28;20038;-65
2022/08/30 04:47:52;;;;;;;8.43;4.03;;;;;;;;;;4971476;28;20084;-64
2022/08/30 04:50:18;;;;;;;8.40;4.03;;;;;;;;;;4971398;28;20027;-66
2022/08/30 04:52:44;;;;;;;12.35;5.30;;;;;;;;;;4971349;28;20421;-65
2022/08/30 04:55:10;;;;;;;14.55;5.50;;;;;;;;;;4971299;28;20047;-66
2022/08/30 04:57:35;;;;;;;13.25;6.13;;;;;;;;;;4954896;28;20054;-66
2022/08/30 05:00:01;;;;;;;11.00;4.88;;;;;;;;;;4972482;28;20439;-65
2022/08/30 05:02:27;;;;;;;16.40;6.20;;;;;;;;;;4972270;28;20015;-65
2022/08/30 05:07:37;;;;;;;12.38;5.07;;;;;;;;;;4971932;28;20082;-65
2022/08/30 05:10:03;;;;;;;6.80;4.03;;;;;;;;;;4972168;28;20039;-66
2022/08/30 05:12:29;;;;;;;10.60;4.30;;;;;;;;;;4972229;28;20039;-65
2022/08/30 05:14:57;;;;;;;7.68;4.53;;;;;;;;;;4954008;28;20026;-66
2022/08/30 05:17:23;;;;;;;7.97;4.28;;;;;;;;;;4971670;28;20027;-65
2022/08/30 05:19:48;;;;;;;9.63;4.07;;;;;;;;;;4971750;28;20477;-65
2022/08/30 05:22:14;;;;;;;7.15;4.30;;;;;;;;;;4971576;28;20444;-65
2022/08/30 05:24:39;;;;;;;9.68;4.35;;;;;;;;;;4971619;28;20026;-65
2022/08/30 05:27:05;;;;;;;9.65;4.70;;;;;;;;;;4970584;28;20023;-64
2022/08/30 05:29:30;;;;;;;12.30;5.22;;;;;;;;;;4970688;28;20405;-64
2022/08/30 05:31:56;;;;;;;8.55;4.90;;;;;;;;;;4953536;28;20041;-65
2022/08/30 05:34:21;;;;;;;7.30;4.53;;;;;;;;;;4970486;28;20029;-63
2022/08/30 05:36:47;;;;;;;14.43;4.88;;;;;;;;;;4970714;28;20102;-66
2022/08/30 05:39:12;;;;;;;11.82;5.00;;;;;;;;;;4970645;28;20022;-65
2022/08/30 05:41:38;;;;;;;8.18;5.18;;;;;;;;;;4969913;28;20043;-65
2022/08/30 05:44:04;;;;;;;8.38;5.07;;;;;;;;;;4970519;28;20034;-65
2022/08/30 05:46:32;;;;;;;9.73;5.85;;;;;;;;;;4970481;28;20069;-65
2022/08/30 05:49:01;;;;;;;10.45;5.72;;;;;;;;;;4973041;28;20556;-65
2022/08/30 05:51:27;;;;;;;9.30;5.72;;;;;;;;;;4973670;28;20058;-64
2022/08/30 05:53:53;;;;;;;9.57;6.00;;;;;;;;;;4973921;28;20102;-65
2022/08/30 05:56:21;;;;;;;11.00;6.45;;;;;;;;;;4956573;28;20157;-64
2022/08/30 05:58:46;;;;;;;12.00;6.05;;;;;;;;;;4973871;28;20148;-65
2022/08/30 06:01:38;;;;;;;10.60;5.93;;;;;;;;;;4973639;28;20103;-65
2022/08/30 06:04:04;;;;;;;10.45;6.20;;;;;;;;;;4952724;28;20081;-65
2022/08/30 06:06:31;;;;;;;11.80;6.85;;;;;;;;;;4973734;28;20065;-64
2022/08/30 06:08:56;;;;;;;10.23;6.47;;;;;;;;;;4973695;28;20409;-65
2022/08/30 06:11:23;;;;;;;13.43;6.97;;;;;;;;;;4956186;28;20023;-64
2022/08/30 06:13:48;;;;;;;12.95;6.90;;;;;;;;;;4973467;28;20030;-65
2022/08/30 06:16:15;;;;;;;10.13;6.35;;;;;;;;;;4973414;28;20034;-64
2022/08/30 06:18:41;;;;;;;8.88;6.57;;;;;;;;;;4973449;28;20056;-65
2022/08/30 06:21:06;;;;;;;9.98;7.00;;;;;;;;;;4956310;28;20019;-65
2022/08/30 06:23:32;;;;;;;8.70;6.32;;;;;;;;;;4973419;28;20057;-65
2022/08/30 06:26:04;;;;;;;14.30;7.28;;;;;;;;;;4956394;28;20030;-63
2022/08/30 06:28:31;;;;;;;11.35;6.22;;;;;;;;;;4973752;28;20073;-64
2022/08/30 06:30:57;;;;;;;11.77;6.57;;;;;;;;;;4972998;28;20334;-65
2022/08/30 06:33:22;;;;;;;11.60;6.05;;;;;;;;;;4956022;28;20038;-64
2022/08/30 06:35:48;;;;;;;9.13;5.65;;;;;;;;;;4972844;28;20027;-65
2022/08/30 06:38:13;;;;;;;10.10;5.93;;;;;;;;;;4973106;28;20493;-65
2022/08/30 06:40:38;;;;;;;9.65;5.40;;;;;;;;;;4973113;28;20015;-64
2022/08/30 06:43:04;;;;;;;10.65;6.35;;;;;;;;;;4972829;28;20042;-65
2022/08/30 06:45:29;;;;;;;10.20;5.75;;;;;;;;;;4972985;28;20035;-64
2022/08/30 06:47:56;;;;;;;9.77;5.75;;;;;;;;;;4972982;28;20485;-64
2022/08/30 06:50:24;;;;;;;9.70;5.20;;;;;;;;;;4955728;28;20027;-64
2022/08/30 06:52:50;;;;;;;7.40;5.72;;;;;;;;;;4973252;28;20122;-65
2022/08/30 06:55:16;;;;;;;8.13;4.97;;;;;;;;;;4973690;28;20054;-65
2022/08/30 06:57:42;;;;;;;7.00;4.97;;;;;;;;;;4973704;28;20374;-65
2022/08/30 07:00:09;;;;;;;8.40;5.32;;;;;;;;;;4973107;28;20102;-65
2022/08/30 07:02:35;;;;;;;8.10;4.82;;;;;;;;;;4973624;28;20065;-65
2022/08/30 07:05:01;;;;;;;9.95;5.63;;;;;;;;;;4973270;28;20029;-64
2022/08/30 07:07:26;;;;;;;7.22;5.15;;;;;;;;;;4972823;28;20030;-64
2022/08/30 07:09:52;;;;;;;12.40;6.47;;;;;;;;;;4972686;28;20027;-63
2022/08/30 07:12:18;;;;;;;6.40;5.00;;;;;;;;;;4972731;28;20386;-63
2022/08/30 07:14:43;;;;;;;8.60;5.25;;;;;;;;;;4972663;28;20084;-63
2022/08/30 07:19:53;;;;;;;6.55;4.57;;;;;;;;;;4972550;28;20266;-64
2022/08/30 07:22:18;;;;;;;9.93;6.05;;;;;;;;;;4972577;28;20010;-64
2022/08/30 07:24:44;;;;;;;9.32;5.85;;;;;;;;;;4972416;28;20462;-63
2022/08/30 07:27:09;;;;;;;5.20;4.70;;;;;;;;;;4972472;28;20160;-65
2022/08/30 07:29:35;;;;;;;8.32;4.55;;;;;;;;;;4972185;28;20109;-64
2022/08/30 07:32:00;;;;;;;7.60;4.78;;;;;;;;;;4972375;28;20030;-66
2022/08/30 07:34:26;;;;;;;5.82;5.20;;;;;;;;;;4972262;28;20084;-65
2022/08/30 07:36:51;;;;;;;6.60;4.60;;;;;;;;;;4972274;28;20019;-65
2022/08/30 07:39:17;;;;;;;9.00;6.00;;;;;;;;;;4972464;28;20041;-65
2022/08/30 07:41:43;;;;;;;7.38;4.80;;;;;;;;;;4972196;28;20078;-65
2022/08/30 07:44:09;;;;;;;7.63;4.75;;;;;;;;;;4971900;28;20118;-65
2022/08/30 07:46:35;;;;;;;6.57;4.65;;;;;;;;;;4972165;28;20027;-65
2022/08/30 07:49:01;;;;;;;5.43;4.90;;;;;;;;;;4971908;28;20035;-65
2022/08/30 07:51:27;;;;;;;8.80;5.28;;;;;;;;;;4972090;28;20027;-65
2022/08/30 07:53:54;;;;;;;5.35;4.85;;;;;;;;;;4971946;28;20027;-65
2022/08/30 07:56:19;;;;;;;5.32;4.25;;;;;;;;;;4971870;28;20106;-65
2022/08/30 07:58:45;;;;;;;5.22;4.32;;;;;;;;;;4972035;28;20106;-65
2022/08/30 08:01:11;;;;;;;6.57;4.32;;;;;;;;;;4971958;28;20023;-65
2022/08/30 08:03:38;;;;;;;6.55;4.70;;;;;;;;;;4971991;28;20375;-65
2022/08/30 08:06:04;;;;;;;4.95;3.63;;;;;;;;;;4971343;28;20022;-65
2022/08/30 08:08:30;;;;;;;7.05;3.28;;;;;;;;;;4972206;28;20034;-65
2022/08/30 08:10:55;;;;;;;7.25;4.22;;;;;;;;;;4971202;28;20057;-64
2022/08/30 08:13:22;;;;;;;6.47;3.88;;;;;;;;;;4954108;28;20054;-65
2022/08/30 08:15:47;;;;;;;5.72;3.60;;;;;;;;;;4971667;28;20034;-64
2022/08/30 08:18:13;;;;;;;3.17;2.70;;;;;;;;;;4971769;28;20026;-66
2022/08/30 08:20:38;;;;;;;5.82;2.85;;;;;;;;;;4954399;28;20094;-65
2022/08/30 08:23:04;;;;;;;3.00;2.80;;;;;;;;;;4971398;28;20035;-65
2022/08/30 08:25:30;;;;;;;2.92;2.70;;;;;;;;;;4971342;28;20023;-65
2022/08/30 08:27:55;;;;;;;3.67;2.78;;;;;;;;;;4971447;28;20460;-66
2022/08/30 08:30:21;;;;;;;3.28;2.58;;;;;;;;;;4971451;28;20050;-65
2022/08/30 08:32:47;;;;;;;3.55;2.92;;;;;;;;;;4954375;28;20037;-64
2022/08/30 08:35:13;;;;;;;3.03;2.78;;;;;;;;;;4971461;28;20534;-65
2022/08/30 08:37:39;;;;;;;3.22;2.72;;;;;;;;;;4971445;28;20109;-65
2022/08/30 08:40:06;;;;;;;3.53;2.60;;;;;;;;;;4971216;28;20094;-64
2022/08/30 08:42:50;;;;;;;2.97;2.72;;;;;;;;;;4971103;28;20043;-65
2022/08/30 08:45:22;;;;;;;3.00;2.78;;;;;;;;;;4971205;28;20039;-65
2022/08/30 08:47:48;;;;;;;3.95;2.63;;;;;;;;;;4971368;28;20411;-65
2022/08/30 08:50:16;;;;;;;2.60;2.40;;;;;;;;;;4970993;28;20062;-66
2022/08/30 08:55:31;;;;;;;2.42;2.30;;;;;;;;;;4970873;28;20039;-65
2022/08/30 08:57:57;;;;;;;3.05;2.65;;;;;;;;;;4972058;28;20019;-65
2022/08/30 09:00:22;;;;;;;3.10;2.83;;;;;;;;;;4954642;28;20089;-65
2022/08/30 09:02:59;;;;;;;3.30;3.00;;;;;;;;;;4971747;28;20022;-66
2022/08/30 09:05:28;;;;;;;4.35;2.92;;;;;;;;;;4971709;28;20414;-64
2022/08/30 09:07:59;;;;;;;3.47;3.15;;;;;;;;;;4970646;28;20482;-65
2022/08/30 09:10:25;;;;;;;4.00;2.97;;;;;;;;;;4971091;28;20053;-65
2022/08/30 09:12:50;;;;;;;2.67;2.47;;;;;;;;;;4970746;28;20023;-63
2022/08/30 09:15:27;;;;;;;3.72;3.10;;;;;;;;;;4971775;28;20114;-64
2022/08/30 09:17:53;;;;;;;3.50;2.75;;;;;;;;;;4971884;28;20035;-64
2022/08/30 09:20:47;;;;;;;3.75;2.03;;;;;;;;;;4954625;28;20037;-63
2022/08/30 09:23:15;;;;;;;2.22;2.13;;;;;;;;;;4956691;28;20042;-63
2022/08/30 09:25:50;;;;;;;2.72;2.53;;;;;;;;;;4975282;28;20037;-63
2022/08/30 09:28:20;;;;;;;2.05;1.95;;;;;;;;;;4958009;28;20046;-63
2022/08/30 09:31:06;;;;;;;4.10;2.78;;;;;;;;;;4975890;28;20105;-63
2022/08/30 09:33:31;;;;;;;3.30;3.00;;;;;;;;;;4957641;28;20043;-63
2022/08/30 09:36:08;;;;;;;5.35;2.80;;;;;;;;;;4975461;28;20038;-63
2022/08/30 09:38:33;;;;;;;2.88;2.65;;;;;;;;;;4956509;28;20402;-63
2022/08/30 09:41:19;;;;;;;2.63;2.42;;;;;;;;;;4974865;28;20015;-64
2022/08/30 09:44:01;;;;;;;2.50;2.30;;;;;;;;;;4974912;28;20035;-62
2022/08/30 09:46:27;;;;;;;2.17;1.98;;;;;;;;;;4975455;28;20035;-63
2022/08/30 09:48:52;;;;;;;2.30;2.10;;;;;;;;;;4975522;28;20030;-63
2022/08/30 09:51:28;;;;;;;2.45;2.30;;;;;;;;;;4974973;28;20035;-63
2022/08/30 09:53:56;;;;;;;3.28;2.50;;;;;;;;;;4975201;28;20069;-63
2022/08/30 09:56:21;;;;;;;2.45;2.25;;;;;;;;;;4975054;28;20522;-63
2022/08/30 09:58:59;;;;;;;2.67;2.40;;;;;;;;;;4974887;28;20109;-63
2022/08/30 10:01:46;;;;;;;2.30;1.98;;;;;;;;;;4975060;28;20101;-64
2022/08/30 10:04:17;;;;;;;2.38;2.28;;;;;;;;;;4957453;28;20035;-63
2022/08/30 10:06:48;;;;;;;2.65;2.42;;;;;;;;;;4957483;28;20110;-64
2022/08/30 10:09:13;;;;;;;2.63;2.42;;;;;;;;;;4975087;28;20039;-63
2022/08/30 10:11:48;;;;;;;3.95;2.58;;;;;;;;;;4974666;28;20045;-62
2022/08/30 10:14:32;;;;;;;3.08;2.47;;;;;;;;;;4974724;28;20031;-63
2022/08/30 10:17:20;;;;;;;2.30;2.20;;;;;;;;;;4974836;28;20070;-62
2022/08/30 10:19:55;;;;;;;2.83;2.63;;;;;;;;;;4964500;28;20046;-63
2022/08/30 10:22:24;;;;;;;3.63;2.95;;;;;;;;;;4975145;28;20035;-63
2022/08/30 10:24:52;;;;;;;3.75;2.65;;;;;;;;;;4974530;28;20014;-63
2022/08/30 10:27:17;;;;;;;3.75;2.33;;;;;;;;;;4974538;28;20026;-63
2022/08/30 10:29:45;;;;;;;3.13;2.90;;;;;;;;;;4974671;28;20363;-63
2022/08/30 10:32:24;;;;;;;3.10;2.38;;;;;;;;;;4974726;28;20030;-63
2022/08/30 10:34:56;;;;;;;3.63;2.13;;;;;;;;;;4973297;28;20068;-63
2022/08/30 10:37:26;;;;;;;2.40;2.05;;;;;;;;;;4974850;28;20066;-62
2022/08/30 10:41:11;;;;;;;2.15;2.00;;;;;;;;;;4974346;28;20030;-63
2022/08/30 10:42:47;;;;;;;2.70;1.98;;;;;;;;;;4955581;28;20046;-62
2022/08/30 10:45:14;;;;;;;2.28;1.80;;;;;;;;;;4974252;28;20027;-63
2022/08/30 10:47:40;;;;;;;2.08;1.80;;;;;;;;;;4956933;28;20051;-64
2022/08/30 10:50:12;;;;;;;2.20;2.10;;;;;;;;;;4973031;28;20029;-63
2022/08/30 10:52:39;;;;;;;1.95;1.85;;;;;;;;;;4972960;28;20030;-64
2022/08/30 10:55:05;;;;;;;2.67;2.10;;;;;;;;;;4972921;28;20029;-63
2022/08/30 10:57:30;;;;;;;1.80;1.70;;;;;;;;;;4972882;28;20031;-63
2022/08/30 10:59:58;;;;;;;1.90;1.80;;;;;;;;;;4972650;28;20030;-63
2022/08/30 11:02:42;;;;;;;1.70;1.60;;;;;;;;;;4972914;28;20069;-63
2022/08/30 11:05:26;;;;;;;1.95;1.85;;;;;;;;;;4972782;28;20118;-62
2022/08/30 11:07:58;;;;;;;1.80;1.70;;;;;;;;;;4973012;28;20050;-63
2022/08/30 11:10:23;;;;;;;1.80;1.55;;;;;;;;;;4972521;28;20113;-63
2022/08/30 11:13:07;;;;;;;1.60;1.50;;;;;;;;;;4955183;28;20097;-63
2022/08/30 11:15:34;;;;;;;1.67;1.58;;;;;;;;;;4972620;28;20550;-63
2022/08/30 11:18:09;;;;;;;1.85;1.70;;;;;;;;;;4972611;28;20027;-63
2022/08/30 11:20:42;;;;;;;1.70;1.60;;;;;;;;;;4972138;28;20359;-62
2022/08/30 11:23:19;;;;;;;1.90;1.80;;;;;;;;;;4972568;28;20406;-63
2022/08/30 11:25:50;;;;;;;1.60;1.50;;;;;;;;;;4955332;28;20030;-63
2022/08/30 11:28:34;;;;;;;1.42;1.35;;;;;;;;;;4972768;28;20080;-63
2022/08/30 11:31:05;;;;;;;1.00;1.00;;;;;;;;;;4972355;28;20030;-63
2022/08/30 11:33:51;;;;;;;1.80;1.70;;;;;;;;;;4954532;28;20702;-63
2022/08/30 11:36:37;;;;;;;2.30;1.73;;;;;;;;;;4971240;28;20078;-63
2022/08/30 11:39:03;;;;;;;2.08;1.90;;;;;;;;;;4954355;28;20376;-62
2022/08/30 11:41:31;;;;;;;1.67;1.58;;;;;;;;;;4972018;28;20034;-63
2022/08/30 11:44:11;;;;;;;2.03;1.80;;;;;;;;;;4972085;28;20088;-61
2022/08/30 11:46:40;;;;;;;2.03;1.80;;;;;;;;;;4972341;28;20033;-63
2022/08/30 11:49:06;;;;;;;1.83;1.73;;;;;;;;;;4971780;28;20019;-62
2022/08/30 11:51:38;;;;;;;1.63;1.55;;;;;;;;;;4972066;28;20038;-63
2022/08/30 11:54:22;;;;;;;1.50;1.40;;;;;;;;;;4971969;28;20034;-62
2022/08/30 11:56:50;;;;;;;1.50;1.38;;;;;;;;;;4971886;28;20479;-63
2022/08/30 11:59:24;;;;;;;1.50;1.40;;;;;;;;;;4972018;28;20034;-63
2022/08/30 12:01:49;;;;;;;1.60;1.50;;;;;;;;;;4972169;28;20462;-63
2022/08/30 12:04:15;;;;;;;1.38;1.27;;;;;;;;;;4971857;28;20169;-63
2022/08/30 12:06:40;;;;;;;1.63;1.40;;;;;;;;;;4971832;28;20027;-62
2022/08/30 12:09:07;;;;;;;1.40;1.30;;;;;;;;;;4971507;28;20022;-63
2022/08/30 12:11:32;;;;;;;1.73;1.63;;;;;;;;;;4971820;28;20121;-64
2022/08/30 12:13:59;;;;;;;1.77;1.67;;;;;;;;;;4971725;28;20550;-63
2022/08/30 12:16:35;;;;;;;1.50;1.40;;;;;;;;;;4971678;28;20131;-63
2022/08/30 12:19:18;;;;;;;1.50;1.40;;;;;;;;;;4971674;28;20058;-63
2022/08/30 12:21:52;;;;;;;1.30;1.20;;;;;;;;;;4971634;28;20051;-63
2022/08/30 12:24:31;;;;;;;1.50;1.40;;;;;;;;;;4971500;28;20109;-63
2022/08/30 12:26:57;;;;;;;1.50;1.40;;;;;;;;;;4971687;28;20033;-62
2022/08/30 12:29:27;;;;;;;1.65;1.45;;;;;;;;;;4971474;28;20462;-63
2022/08/30 12:31:59;;;;;;;1.73;1.63;;;;;;;;;;4971521;28;20114;-63
2022/08/30 12:34:26;;;;;;;1.40;1.38;;;;;;;;;;4971550;28;20019;-63
2022/08/30 12:36:51;;;;;;;1.60;1.50;;;;;;;;;;4971621;28;20474;-63
2022/08/30 12:39:20;;;;;;;2.13;1.65;;;;;;;;;;4971495;28;20033;-63
2022/08/30 12:41:45;;;;;;;1.70;1.60;;;;;;;;;;4971349;28;20069;-63
2022/08/30 12:44:15;;;;;;;1.63;1.40;;;;;;;;;;4971349;28;20034;-63
2022/08/30 12:46:41;;;;;;;;;;;;;;;;;;4972320;28;20027;-62
2022/08/30 12:49:07;;;;;;;1.60;1.50;;;;;;;;;;4970734;28;20372;-62
2022/08/30 12:51:40;;;;;;;1.60;1.50;;;;;;;;;;4971107;28;20045;-63
2022/08/30 12:54:07;;;;;;;2.42;1.58;;;;;;;;;;4971636;28;20090;-62
2022/08/30 12:56:45;;;;;;;2.05;1.60;;;;;;;;;;4971094;28;20110;-62
2022/08/30 12:59:30;;;;;;;1.73;1.48;;;;;;;;;;4970550;28;20038;-63
2022/08/30 13:02:05;;;;;;;1.70;1.60;;;;;;;;;;4970711;28;20023;-64
2022/08/30 13:04:30;;;;;;;2.17;1.60;;;;;;;;;;4971499;28;20118;-63
2022/08/30 13:06:57;;;;;;;1.33;1.23;;;;;;;;;;4971847;28;20101;-62
2022/08/30 13:09:26;;;;;;;1.83;1.20;;;;;;;;;;4971926;28;20378;-63
2022/08/30 13:11:51;;;;;;;1.38;1.27;;;;;;;;;;4971735;28;20019;-64
2022/08/30 13:14:28;;;;;;;2.03;1.20;;;;;;;;;;4955131;28;20034;-62
2022/08/30 13:17:12;;;;;;;1.58;1.20;;;;;;;;;;4971822;28;20039;-63
2022/08/30 13:19:40;;;;;;;1.20;1.10;;;;;;;;;;4955287;28;20475;-63
2022/08/30 13:22:06;;;;;;;3.38;3.08;;;;;;;;;;4971412;28;20068;-63
2022/08/30 13:24:31;;;;;;;3.60;1.80;;;;;;;;;;4954621;28;20027;-64
2022/08/30 13:27:00;;;;;;;1.85;1.30;;;;;;;;;;4971965;28;20027;-63
2022/08/30 13:29:27;;;;;;;1.30;1.20;;;;;;;;;;4955127;28;20035;-62
2022/08/30 13:31:52;;;;;;;1.70;1.38;;;;;;;;;;4972104;28;20459;-64
2022/08/30 13:34:21;;;;;;;1.30;1.30;;;;;;;;;;4972160;28;20053;-63
2022/08/30 13:36:48;;;;;;;1.42;1.30;;;;;;;;;;4971342;28;20018;-63
2022/08/30 13:39:15;;;;;;;1.40;1.30;;;;;;;;;;4970662;28;20027;-62
2022/08/30 13:41:41;;;;;;;1.48;1.40;;;;;;;;;;4969527;28;20042;-63
2022/08/30 13:44:07;;;;;;;1.20;1.20;;;;;;;;;;4953911;28;20370;-63
2022/08/30 13:46:32;;;;;;;1.30;1.05;;;;;;;;;;4971663;28;20410;-63
2022/08/30 13:49:01;;;;;;;1.63;1.30;;;;;;;;;;4971363;28;20073;-64
2022/08/30 13:51:26;;;;;;;1.40;1.30;;;;;;;;;;4971279;28;20411;-64
2022/08/30 13:53:51;;;;;;;2.40;1.35;;;;;;;;;;4953866;28;20062;-63
2022/08/30 13:56:17;;;;;;;2.55;1.60;;;;;;;;;;4971250;28;20027;-62
2022/08/30 13:58:43;;;;;;;1.85;1.75;;;;;;;;;;4971276;28;20046;-63
2022/08/30 14:01:08;;;;;;;3.75;1.98;;;;;;;;;;4971362;28;20030;-63
2022/08/30 14:03:33;;;;;;;2.38;2.15;;;;;;;;;;4971117;28;20077;-63
2022/08/30 14:05:59;;;;;;;2.10;2.00;;;;;;;;;;4971813;28;20023;-63
2022/08/30 14:08:29;;;;;;;2.38;2.22;;;;;;;;;;4972286;28;20088;-62
2022/08/30 14:10:55;;;;;;;2.08;1.92;;;;;;;;;;4974797;28;20073;-63
2022/08/30 14:13:20;;;;;;;4.28;2.10;;;;;;;;;;4975072;28;20026;-64
2022/08/30 14:15:46;;;;;;;3.80;2.20;;;;;;;;;;4975089;28;20386;-64
2022/08/30 14:18:12;;;;;;;3.85;2.33;;;;;;;;;;4957378;28;20026;-64
2022/08/30 14:20:38;;;;;;;4.85;2.33;;;;;;;;;;4956693;28;20027;-63
2022/08/30 14:23:03;;;;;;;2.13;1.95;;;;;;;;;;4973096;28;20022;-62
2022/08/30 14:25:29;;;;;;;5.00;2.40;;;;;;;;;;4974761;28;20375;-62
2022/08/30 14:27:54;;;;;;;2.38;2.20;;;;;;;;;;4974424;28;20031;-63
2022/08/30 14:30:20;;;;;;;2.05;1.95;;;;;;;;;;4971633;28;20039;-63
2022/08/30 14:32:46;;;;;;;1.75;1.63;;;;;;;;;;4972591;28;20102;-63
2022/08/30 14:35:11;;;;;;;2.08;1.98;;;;;;;;;;4972681;28;20038;-63
2022/08/30 14:37:36;;;;;;;2.47;2.28;;;;;;;;;;4973257;28;20015;-63
2022/08/30 14:40:03;;;;;;;2.55;2.35;;;;;;;;;;4973405;28;20027;-62
2022/08/30 14:42:29;;;;;;;2.47;2.28;;;;;;;;;;4973607;28;20051;-63
2022/08/30 14:44:54;;;;;;;3.55;2.00;;;;;;;;;;4974212;28;20379;-63
2022/08/30 14:47:20;;;;;;;2.15;2.05;;;;;;;;;;4974445;28;20106;-63
2022/08/30 14:49:45;;;;;;;2.20;2.10;;;;;;;;;;4974139;28;20038;-63
2022/08/30 14:52:10;;;;;;;2.95;2.20;;;;;;;;;;4974651;28;20026;-63
2022/08/30 14:54:36;;;;;;;2.75;2.60;;;;;;;;;;4973985;28;20084;-62
2022/08/30 14:57:01;;;;;;;2.50;2.30;;;;;;;;;;4974557;28;20011;-63